This is the latest recevied weather packets stored in our database for station/object OE5XFR. If no packets are shown the sender has not sent any weather packets the latest 10 day(s).
| Time | Temp. | Humidity | Pressure | Rain* | Wind** | Luminosity | Snow |
|---|---|---|---|---|---|---|---|
| 1777681995 | 6.11° C | 63% | 1026 hPa | 0 mm | - | - | - |
| 1777681275 | 6.67° C | 63% | 1026 hPa | 0 mm | - | - | - |
| 1777680555 | 7.22° C | 57% | 1026 hPa | 0 mm | - | - | - |
| 1777679835 | 7.78° C | 56% | 1026 hPa | 0 mm | - | - | - |
| 1777679115 | 7.78° C | 55% | 1026 hPa | 0 mm | - | - | - |
| 1777678395 | 8.33° C | 53% | 1026 hPa | 0 mm | - | - | - |
| 1777677675 | 8.33° C | 54% | 1026 hPa | 0 mm | - | - | - |
| 1777676955 | 8.33° C | 54% | 1026 hPa | 0 mm | - | - | - |
| 1777676235 | 8.33° C | 54% | 1026 hPa | 0 mm | - | - | - |
| 1777675515 | 8.33° C | 56% | 1026 hPa | 0 mm | - | - | - |
| 1777674797 | 8.33° C | 55% | 1026 hPa | 0 mm | - | - | - |
| 1777674076 | 8.33° C | 55% | 1026 hPa | 0 mm | - | - | - |
| 1777673356 | 9.44° C | 51% | 1026 hPa | 0 mm | - | - | - |
| 1777672635 | 9.44° C | 49% | 1026 hPa | 0 mm | - | - | - |
| 1777671914 | 9.44° C | 49% | 1026 hPa | 0 mm | - | - | - |
| 1777671195 | 10° C | 49% | 1027 hPa | 0 mm | - | - | - |
| 1777670475 | 10° C | 49% | 1027 hPa | 0 mm | - | - | - |
| 1777669754 | 10.56° C | 47% | 1027 hPa | 0 mm | - | - | - |
| 1777669035 | 10.56° C | 46% | 1027 hPa | 0 mm | - | - | - |
| 1777668315 | 11.11° C | 46% | 1026 hPa | 0 mm | - | - | - |
| 1777667594 | 11.67° C | 42% | 1026 hPa | 0 mm | - | - | - |
| 1777666875 | 11.67° C | 40% | 1027 hPa | 0 mm | - | - | - |
| 1777666154 | 12.78° C | 37% | 1027 hPa | 0 mm | - | - | - |
| 1777665434 | 13.33° C | 36% | 1027 hPa | 0 mm | - | - | - |
| 1777664714 | 13.33° C | 34% | 1027 hPa | 0 mm | - | - | - |
* Rain latest hour (hover to see other rain measurements)
** Current wind speed in m/s (hover to see current wind gust speed)